PORT of MUNDRA

Country: India Country: India [IN]
Latitude / Longitude: 22.756025° / 69.636455° Show on Map
Local Time:  [UTC +5.5]
UN/LOCODE: INMUN
Expected Arrivals: 13

Vessels in Port


No Records Found

Recent Arrivals & Departures


Vessel's Name
Arrival (UTC)
Arrival (LT)
Departure (UTC)
Departure (LT)
Vessel Type: Cargo Vessels  AS CARINTHIA 2014-08-23 03:00:00 2014-08-23 08:30:00
Vessel Type: Cargo Vessels  OCEAN COURTESY 2014-08-19 00:27:00 2014-08-19 05:57:00 2014-08-22 06:25:00 2014-08-22 11:55:00
Vessel Type: Cargo Vessels  IKAN PANDAN 2014-08-13 15:05:00 2014-08-13 20:35:00 2014-08-21 20:41:00 2014-08-22 02:11:00
Vessel Type: Cargo Vessels  SILVER TRADE 2014-08-21 17:10:00 2014-08-21 22:40:00
Vessel Type: Cargo Vessels  RAFAELO 2014-08-21 14:56:00 2014-08-21 20:26:00
Vessel Type: Cargo Vessels  LOWLANDS SERENITY 2014-08-18 01:47:00 2014-08-18 07:17:00 2014-08-21 13:40:00 2014-08-21 19:10:00
C -401 2014-08-21 06:35:00 2014-08-21 12:05:00
RHL AQUA 2014-08-21 03:52:00 2014-08-21 09:22:00
PRT FUTURE 2014-08-20 19:54:00 2014-08-21 01:24:00
SILS 2014-08-20 16:48:00 2014-08-20 22:18:00 2014-08-20 19:50:00 2014-08-21 01:20:00

Expected Arrivals


Vessel's Name
Scheduled Arrival (UTC)
Scheduled Arrival (LT)
Estimated Arrival (UTC)
Estimated Arrival (LT)
GOLDEN DENISE 2014-08-22 21:30:00 2014-08-23 03:00:00 2014-08-22 18:18:00 2014-08-22 23:48:00
SANTA PAMINA 2014-08-23 05:00:00 2014-08-23 10:30:00 2014-08-31 13:45:00 2014-08-31 19:15:00
Vessel Type: Cargo Vessels  INDIRA GANDHI 2014-08-24 00:00:00 2014-08-24 05:30:00 2014-08-24 21:21:00 2014-08-25 02:51:00
KOTA KAMIL 2014-08-24 18:30:00 2014-08-25 00:00:00 2014-08-23 16:00:00 2014-08-23 21:30:00
Vessel Type: Tankers  SUCCESS MARLINA XXXIII 2014-08-24 18:30:00 2014-08-25 00:00:00 2014-08-25 01:22:00 2014-08-25 06:52:00
Vessel Type: Cargo Vessels  VILLE D'AQUARIUS 2014-08-25 11:00:00 2014-08-25 16:30:00 2014-08-25 22:50:00 2014-08-26 04:20:00
Vessel Type: Cargo Vessels  GENCO RELIANCE 2014-08-26 08:00:00 2014-08-26 13:30:00 2014-08-26 21:34:00 2014-08-27 03:04:00
Vessel Type: Tankers  MELATI 6 2014-08-28 05:00:00 2014-08-28 10:30:00 2014-08-27 12:55:00 2014-08-27 18:25:00
INDUS PROSPERITY 2014-08-30 02:00:00 2014-08-30 07:30:00 2014-08-30 05:06:00 2014-08-30 10:36:00
Vessel Type: Cargo Vessels  MSC SHENZHEN 2014-08-30 02:00:00 2014-08-30 07:30:00 2014-09-23 05:44:00 2014-09-23 11:14:00

Wind Forecast


    
Time (UTC)
Speed
Direction
Temperature
2014-08-23 15:00:00 12 knots 251° 28°C
2014-08-23 18:00:00 10 knots 257° 28°C
2014-08-23 21:00:00 10 knots 254° 27°C
2014-08-24 00:00:00 10 knots 258° 27°C
2014-08-24 03:00:00 9 knots 268° 28°C
2014-08-24 06:00:00 10 knots 260° 29°C
2014-08-24 09:00:00 15 knots 256° 30°C
2014-08-24 12:00:00 16 knots 257° 29°C
2014-08-24 15:00:00 13 knots 255° 28°C
2014-08-24 18:00:00 13 knots 251° 28°C
2014-08-24 21:00:00 14 knots 264° 27°C
2014-08-25 00:00:00 13 knots 270° 27°C
2014-08-25 03:00:00 11 knots 271° 28°C
2014-08-25 06:00:00 12 knots 256° 30°C
2014-08-25 09:00:00 16 knots 253° 30°C
2014-08-25 12:00:00 17 knots 253° 29°C
2014-08-25 15:00:00 15 knots 257° 28°C